Time;durP1;ratioP1;P1;durP2;ratioP2;P2;SDS_P1;SDS_P2;PMS_P1;PMS_P2;Temp;Humidity;BMP_temperature;BMP_pressure;BME280_temperature;BME280_humidity;BME280_pressure;Samples;Min_cycle;Max_cycle;Signal;HPM_P1;HPM_P2
2022/05/09 00:00:22;;;;;;;;;5.33;4.33;;;;;12.38;72.09;100930.56;5060140;28;45271;-74
2022/05/09 00:02:48;;;;;;;;;4.25;4.00;;;;;12.31;71.98;100924.22;5060187;28;45324;-74
2022/05/09 00:05:16;;;;;;;;;4.00;4.00;;;;;12.39;72.28;100933.19;5059204;28;45514;-74
2022/05/09 00:07:43;;;;;;;;;4.00;4.00;;;;;12.27;72.49;100914.50;5058431;28;45432;-76
2022/05/09 00:10:11;;;;;;;;;4.00;4.00;;;;;12.36;72.66;100927.00;5059937;28;45528;-75
2022/05/09 00:12:37;;;;;;;;;4.00;4.00;;;;;12.33;72.11;100928.69;5060338;28;45250;-74
2022/05/09 00:15:04;;;;;;;;;4.00;3.33;;;;;12.26;72.43;100931.06;5059743;28;45381;-76
2022/05/09 00:17:29;;;;;;;;;6.00;4.50;;;;;12.16;72.52;100908.09;5059785;28;45597;-74
2022/05/09 00:19:55;;;;;;;;;5.00;4.00;;;;;12.25;72.88;100930.16;5059634;28;45354;-75
2022/05/09 00:22:20;;;;;;;;;3.50;3.50;;;;;12.23;72.45;100930.97;5059733;28;45499;-75
2022/05/09 00:24:46;;;;;;;;;4.00;4.00;;;;;12.10;72.60;100907.06;5059678;28;45453;-75
2022/05/09 00:27:11;;;;;;;;;4.00;4.00;;;;;12.11;72.41;100915.78;5059058;28;46485;-73
2022/05/09 00:29:37;;;;;;;;;4.67;3.00;;;;;12.04;72.91;100904.25;5058149;28;45559;-74
2022/05/09 00:32:03;;;;;;;;;3.00;3.00;;;;;11.98;73.26;100888.38;5059751;28;45280;-73
2022/05/09 00:34:28;;;;;;;;;3.67;3.67;;;;;11.98;72.89;100884.84;5059827;28;45283;-74
2022/05/09 00:36:55;;;;;;;;;4.75;4.75;;;;;12.09;72.62;100907.88;5059515;28;46137;-74
2022/05/09 00:39:21;;;;;;;;;4.67;4.33;;;;;12.05;72.90;100913.00;5059645;28;45686;-75
2022/05/09 00:41:47;;;;;;;;;4.00;4.00;;;;;11.94;72.91;100896.97;5059653;28;45551;-75
2022/05/09 00:44:22;;;;;;;;;5.00;4.00;;;;;12.02;72.89;100911.19;5058319;28;45444;-74
2022/05/09 00:46:51;;;;;;;;;5.00;4.00;;;;;12.00;72.93;100912.84;5059516;28;45573;-74
2022/05/09 00:49:34;;;;;;;;;5.00;5.00;;;;;11.97;73.06;100915.38;5059221;28;45484;-74
2022/05/09 00:52:09;;;;;;;;;5.33;5.00;;;;;11.87;73.04;100905.44;5059714;28;45359;-74
2022/05/09 00:54:41;;;;;;;;;5.00;5.00;;;;;11.95;73.36;100909.19;5059954;28;45276;-74
2022/05/09 00:57:20;;;;;;;;;5.00;4.00;;;;;11.82;73.30;100897.44;5058482;28;46908;-74
2022/05/09 00:59:48;;;;;;;;;5.00;4.75;;;;;11.70;73.53;100868.28;5059283;28;45482;-74
2022/05/09 01:02:15;;;;;;;;;8.50;6.75;;;;;11.65;73.95;100869.88;5059645;28;45406;-74
2022/05/09 01:04:54;;;;;;;;;6.00;5.25;;;;;11.78;73.31;100902.53;5059026;28;45521;-75
2022/05/09 01:07:22;;;;;;;;;5.75;4.75;;;;;11.67;74.42;100896.97;5058732;28;46257;-74
2022/05/09 01:09:48;;;;;;;;;5.00;5.00;;;;;11.62;74.16;100894.22;5057077;28;45497;-74
2022/05/09 01:12:19;;;;;;;;;4.50;4.00;;;;;11.61;74.23;100887.19;5058635;28;45581;-74
2022/05/09 01:14:44;;;;;;;;;4.25;4.25;;;;;11.69;73.89;100901.41;5057311;28;45573;-78
2022/05/09 01:17:11;;;;;;;;;6.00;4.25;;;;;11.71;73.67;100899.72;5057649;28;45638;-74
2022/05/09 01:19:42;;;;;;;;;5.50;4.25;;;;;11.71;73.78;100904.06;5058812;28;45366;-75
2022/05/09 01:22:21;;;;;;;;;5.00;4.50;;;;;11.69;73.51;100905.75;5059116;28;45564;-74
2022/05/09 01:24:46;;;;;;;;;6.00;5.00;;;;;11.55;73.18;100882.66;5058898;28;45551;-74
2022/05/09 01:27:13;;;;;;;;;4.00;4.00;;;;;11.68;73.43;100899.66;5058860;28;46217;-75
2022/05/09 01:30:03;;;;;;;;;5.00;4.00;;;;;11.67;73.46;100912.69;5058910;28;45474;-74
2022/05/09 01:32:48;;;;;;;;;4.75;4.00;;;;;11.64;73.40;100905.63;5058672;28;45489;-74
2022/05/09 01:35:48;;;;;;;;;5.25;5.00;;;;;11.66;73.94;100911.78;5057523;28;45317;-73
2022/05/09 01:38:22;;;;;;;;;4.50;4.00;;;;;11.67;73.81;100903.09;5049244;28;46337;-74
2022/05/09 01:40:47;;;;;;;;;6.00;4.00;;;;;11.55;73.83;100897.47;5058329;28;45321;-74
2022/05/09 01:43:13;;;;;;;;;4.67;4.00;;;;;11.20;74.11;100844.94;5058918;28;45345;-74
2022/05/09 01:45:38;;;;;;;;;5.50;5.00;;;;;11.63;73.48;100921.28;5058706;28;45538;-74
2022/05/09 01:50:48;;;;;;;;;5.25;5.00;;;;;11.44;73.19;100901.47;5058114;28;45312;-74
2022/05/09 01:53:15;;;;;;;;;5.00;5.00;;;;;11.48;73.53;100917.34;5058861;28;45273;-74
2022/05/09 01:55:41;;;;;;;;;6.00;5.25;;;;;11.39;73.78;100905.69;5057665;28;45629;-74
2022/05/09 01:58:06;;;;;;;;;5.00;4.50;;;;;11.38;73.29;100906.50;5058053;28;45369;-75
2022/05/09 02:00:34;;;;;;;;;5.00;4.00;;;;;11.39;73.86;100918.75;5058287;28;45437;-74
2022/05/09 02:03:00;;;;;;;;;5.00;4.00;;;;;11.33;73.88;100911.59;5058421;28;45401;-74
2022/05/09 02:05:26;;;;;;;;;5.00;4.25;;;;;11.34;74.17;100918.63;5058391;28;45499;-74
2022/05/09 02:07:53;;;;;;;;;4.75;4.25;;;;;10.88;73.95;100830.78;5056598;28;46248;-74
2022/05/09 02:10:19;;;;;;;;;5.00;5.00;;;;;11.28;74.52;100903.59;5058026;28;45223;-74
2022/05/09 02:12:45;;;;;;;;;7.75;6.00;;;;;11.33;74.63;100912.47;5058263;28;45346;-74
2022/05/09 02:15:10;;;;;;;;;4.25;3.50;;;;;11.35;74.65;100910.78;5058221;28;45597;-73
2022/05/09 02:17:37;;;;;;;;;7.50;5.00;;;;;11.35;74.61;100902.94;5057883;28;45949;-74
2022/05/09 02:20:05;;;;;;;;;5.25;4.00;;;;;11.30;74.38;100899.31;5057850;28;45335;-74
2022/05/09 02:22:31;;;;;;;;;5.50;4.75;;;;;11.31;74.42;100897.59;5057901;28;45468;-74
2022/05/09 02:24:56;;;;;;;;;4.75;4.75;;;;;11.24;74.26;100886.03;5058326;28;45362;-74
2022/05/09 02:27:23;;;;;;;;;4.25;4.25;;;;;11.39;74.02;100905.69;5057597;28;45404;-75
2022/05/09 02:29:49;;;;;;;;;5.00;4.75;;;;;11.38;74.18;100903.88;5056252;28;45401;-74
2022/05/09 02:32:16;;;;;;;;;4.75;3.75;;;;;11.26;74.05;100894.81;5057918;28;45524;-73
2022/05/09 02:34:42;;;;;;;;;4.50;4.50;;;;;11.28;74.07;100901.00;5057852;28;45450;-73
2022/05/09 02:37:08;;;;;;;;;5.75;5.00;;;;;11.19;74.49;100891.94;5057520;28;46237;-75
2022/05/09 02:39:33;;;;;;;;;5.00;4.75;;;;;11.09;74.68;100875.06;5057335;28;45238;-74
2022/05/09 02:42:00;;;;;;;;;4.75;4.00;;;;;11.21;74.83;100900.75;5057207;28;45322;-73
2022/05/09 02:44:27;;;;;;;;;6.00;5.00;;;;;11.21;74.57;100896.38;5057748;28;45233;-74
2022/05/09 02:46:53;;;;;;;;;3.00;3.00;;;;;11.21;74.52;100893.78;5057261;28;45738;-74
2022/05/09 02:49:19;;;;;;;;;5.00;4.00;;;;;11.22;74.55;100892.03;5057472;28;45434;-75
2022/05/09 02:51:46;;;;;;;;;4.25;4.00;;;;;11.15;74.45;100877.88;5056544;28;45445;-74
2022/05/09 02:54:12;;;;;;;;;3.00;3.00;;;;;11.22;74.28;100882.50;5056252;28;45312;-74
2022/05/09 02:56:37;;;;;;;;;5.00;4.00;;;;;11.15;74.61;100881.38;5057330;28;46321;-75
2022/05/09 02:59:03;;;;;;;;;6.00;4.25;;;;;11.19;73.75;100878.88;5057753;28;45624;-73
2022/05/09 03:01:28;;;;;;;;;5.00;3.50;;;;;11.01;73.80;100859.13;5057445;28;45543;-75
2022/05/09 03:06:38;;;;;;;;;3.75;3.00;;;;;11.11;74.17;100876.88;5057145;28;45922;-74
2022/05/09 03:09:04;;;;;;;;;4.25;3.75;;;;;11.02;74.18;100860.91;5056873;28;45248;-74
2022/05/09 03:11:30;;;;;;;;;5.25;4.75;;;;;11.08;74.06;100868.06;5057163;28;45641;-77
2022/05/09 03:13:56;;;;;;;;;4.00;3.00;;;;;11.08;73.97;100865.44;5057278;28;45284;-74
2022/05/09 03:16:22;;;;;;;;;4.50;4.50;;;;;11.01;73.86;100859.13;5056880;28;45201;-73
2022/05/09 03:18:47;;;;;;;;;4.00;3.00;;;;;10.54;73.97;100786.16;5057458;28;45497;-74
2022/05/09 03:21:13;;;;;;;;;4.50;4.50;;;;;11.00;74.08;100856.47;5057080;28;45326;-74
2022/05/09 03:23:38;;;;;;;;;5.00;5.00;;;;;10.92;74.13;100841.44;5057403;28;45369;-74
2022/05/09 03:26:04;;;;;;;;;4.00;4.00;;;;;10.92;74.07;100840.50;5055264;28;45508;-73
2022/05/09 03:28:30;;;;;;;;;5.00;4.00;;;;;10.94;73.90;100839.75;5057039;28;45782;-74
2022/05/09 03:30:57;;;;;;;;;7.25;5.25;;;;;10.94;74.12;100842.38;5056977;28;46463;-74
2022/05/09 03:33:26;;;;;;;;;5.25;5.00;;;;;10.84;74.38;100829.84;5058937;28;45406;-74
2022/05/09 03:35:53;;;;;;;;;4.00;3.00;;;;;10.91;74.56;100844.84;5060240;28;45260;-74
2022/05/09 03:38:19;;;;;;;;;5.00;5.00;;;;;10.89;74.78;100843.91;5060444;28;45497;-74
2022/05/09 03:40:46;;;;;;;;;4.00;4.00;;;;;10.85;74.77;100849.00;5060407;28;45446;-74
2022/05/09 03:43:12;;;;;;;;;5.75;4.00;;;;;10.73;75.07;100831.19;5060397;28;45490;-74
2022/05/09 03:45:40;;;;;;;;;5.50;4.25;;;;;10.82;75.20;100844.53;5059967;28;45386;-74
2022/05/09 03:48:06;;;;;;;;;12.25;10.50;;;;;10.74;75.24;100831.25;5058769;28;45520;-74
2022/05/09 03:50:32;;;;;;;;;4.50;4.25;;;;;10.81;75.25;100852.34;5060045;28;45244;-74
2022/05/09 03:52:58;;;;;;;;;4.00;4.00;;;;;10.76;75.38;100844.34;5060011;28;45631;-74
2022/05/09 03:55:23;;;;;;;;;3.50;3.00;;;;;10.74;75.31;100851.22;5058805;28;46206;-74
2022/05/09 03:57:55;;;;;;;;;6.75;6.00;;;;;10.75;74.82;100855.63;5060595;28;45467;-74
2022/05/09 04:00:24;;;;;;;;;5.00;5.00;;;;;10.63;74.65;100836.94;5060561;28;45465;-74
2022/05/09 04:02:51;;;;;;;;;4.75;4.00;;;;;10.65;74.69;100850.94;5060696;28;45334;-74
2022/05/09 04:05:17;;;;;;;;;3.50;3.50;;;;;10.58;73.89;100839.38;5060339;28;46336;-74
2022/05/09 04:07:49;;;;;;;;;3.00;3.00;;;;;10.67;74.25;100860.59;5060045;28;45489;-74
2022/05/09 04:10:18;;;;;;;;;4.50;4.50;;;;;10.60;74.55;100855.97;5060157;28;45216;-74
2022/05/09 04:12:44;;;;;;;;;5.00;4.50;;;;;10.58;74.37;100854.16;5058589;28;45651;-74
2022/05/09 04:17:55;;;;;;;;;4.25;4.00;;;;;10.52;74.63;100867.91;5059967;28;45444;-73
2022/05/09 04:20:22;;;;;;;;;4.75;4.00;;;;;10.48;75.53;100861.66;5060083;28;45361;-76
2022/05/09 04:22:48;;;;;;;;;5.00;4.00;;;;;10.49;75.13;100862.56;5059033;28;45272;-75
2022/05/09 04:25:15;;;;;;;;;6.00;4.50;;;;;10.48;75.86;100856.44;5059360;28;45381;-74
2022/05/09 04:27:41;;;;;;;;;6.25;6.00;;;;;10.34;76.14;100828.97;5059643;28;45434;-75
2022/05/09 04:30:08;;;;;;;;;5.75;5.75;;;;;10.38;76.43;100843.03;5059688;28;45291;-73
2022/05/09 04:32:35;;;;;;;;;5.75;4.00;;;;;10.49;76.54;100857.34;5059779;28;45417;-73
2022/05/09 04:35:01;;;;;;;;;6.75;5.75;;;;;10.52;76.75;100860.06;5059205;28;46150;-74
2022/05/09 04:37:26;;;;;;;;;6.25;5.00;;;;;10.47;76.57;100854.69;5059534;28;45426;-74
2022/05/09 04:39:54;;;;;;;;;6.50;4.75;;;;;10.34;76.21;100831.56;5059863;28;45383;-75
2022/05/09 04:42:20;;;;;;;;;6.50;5.00;;;;;10.53;76.17;100872.31;5059937;28;45383;-74
2022/05/09 04:44:46;;;;;;;;;5.00;4.00;;;;;10.44;76.12;100862.41;5057557;28;46729;-73
2022/05/09 04:47:13;;;;;;;;;5.00;4.00;;;;;10.36;75.98;100858.63;5059209;28;45515;-74
2022/05/09 04:49:39;;;;;;;;;5.00;3.75;;;;;10.52;75.91;100875.72;5059492;28;45326;-74
2022/05/09 04:52:05;;;;;;;;;4.75;4.75;;;;;10.52;76.20;100874.03;5058747;28;45425;-73
2022/05/09 04:54:31;;;;;;;;;6.00;5.25;;;;;10.53;76.83;100877.53;5059164;28;46342;-74
2022/05/09 04:56:56;;;;;;;;;6.00;5.00;;;;;10.57;76.71;100876.78;5059123;28;45526;-74
2022/05/09 04:59:22;;;;;;;;;6.50;5.25;;;;;10.55;75.58;100868.91;5058168;28;45830;-74
2022/05/09 05:01:47;;;;;;;;;5.75;4.75;;;;;10.52;74.17;100863.59;5059466;28;45418;-78
2022/05/09 05:04:14;;;;;;;;;4.00;4.00;;;;;10.60;74.61;100876.88;5059041;28;45351;-79
2022/05/09 05:06:39;;;;;;;;;4.75;4.00;;;;;10.66;74.57;100879.72;5059201;28;45339;-74
2022/05/09 05:09:05;;;;;;;;;5.00;5.00;;;;;10.69;74.57;100878.94;5058707;28;45366;-75
2022/05/09 05:11:30;;;;;;;;;5.00;5.00;;;;;10.63;74.47;100860.44;5059260;28;45414;-73
2022/05/09 05:13:56;;;;;;;;;5.00;5.00;;;;;10.71;74.67;100872.06;5057648;28;45307;-74
2022/05/09 05:16:59;;;;;;;;;5.25;5.25;;;;;10.74;74.63;100873.06;5059105;28;45382;-74
2022/05/09 05:19:09;;;;;;;;;5.00;4.50;;;;;10.89;74.79;100898.81;5058557;28;45366;-74
2022/05/09 05:21:35;;;;;;;;;4.75;4.00;;;;;10.94;74.90;100893.72;5058735;28;45481;-73
2022/05/09 05:24:00;;;;;;;;;6.00;5.00;;;;;10.93;74.88;100892.84;5058717;28;45986;-74
2022/05/09 05:26:26;;;;;;;;;5.00;4.50;;;;;10.97;74.12;100903.41;5058474;28;45430;-74
2022/05/09 05:28:51;;;;;;;;;6.75;4.50;;;;;10.86;73.96;100887.34;5059148;28;45271;-74
2022/05/09 05:31:21;;;;;;;;;6.50;6.00;;;;;10.97;73.87;100911.25;5058971;28;46032;-74
2022/05/09 05:33:47;;;;;;;;;12.50;9.50;;;;;10.98;73.71;100920.88;5058512;28;45982;-74
2022/05/09 05:36:14;;;;;;;;;11.00;9.75;;;;;10.98;73.62;100916.53;5058234;28;45686;-76
2022/05/09 05:38:39;;;;;;;;;12.00;11.75;;;;;11.06;73.53;100920.31;5058485;28;45399;-74
2022/05/09 05:41:05;;;;;;;;;10.00;9.00;;;;;11.16;73.33;100918.91;5058605;28;45457;-74
2022/05/09 05:43:31;;;;;;;;;9.25;7.25;;;;;11.18;73.04;100906.75;5058447;28;45853;-73
2022/05/09 05:45:57;;;;;;;;;9.50;9.00;;;;;11.38;73.15;100917.88;5058383;28;45425;-74
2022/05/09 05:48:24;;;;;;;;;11.75;8.50;;;;;11.50;72.63;100920.00;5058922;28;45295;-74
2022/05/09 05:50:50;;;;;;;;;7.75;7.75;;;;;11.49;71.89;100903.41;5058260;28;45524;-74
2022/05/09 05:53:16;;;;;;;;;6.75;6.25;;;;;11.68;71.38;100923.19;5057969;28;45530;-74
2022/05/09 05:55:41;;;;;;;;;7.00;5.00;;;;;11.80;71.22;100925.31;5055537;28;45655;-74
2022/05/09 05:58:07;;;;;;;;;6.67;6.00;;;;;11.83;71.27;100908.81;5056567;28;45516;-73
2022/05/09 06:00:33;;;;;;;;;6.00;6.00;;;;;12.01;70.78;100917.25;5056981;28;45335;-73
2022/05/09 06:02:59;;;;;;;;;6.00;4.00;;;;;12.15;70.93;100922.88;5056271;28;45880;-74
2022/05/09 06:05:24;;;;;;;;;5.00;5.00;;;;;12.26;70.85;100924.09;5056858;28;45487;-73
2022/05/09 06:07:55;;;;;;;;;6.00;5.00;;;;;12.28;70.63;100903.19;5063796;27;45457;-73
2022/05/09 06:10:26;;;;;;;;;7.00;5.25;;;;;12.43;70.71;100897.50;5054042;28;45412;-74
2022/05/09 06:12:53;;;;;;;;;7.00;7.00;;;;;13.14;70.12;100926.50;5054601;28;46333;-79
2022/05/09 06:15:25;;;;;;;;;6.67;5.67;;;;;16.66;61.40;100919.84;5056119;28;45698;-75
2022/05/09 06:17:51;;;;;;;;;7.33;6.67;;;;;20.16;52.75;100905.41;5056084;28;45449;-76
2022/05/09 06:20:18;;;;;;;;;3.67;3.00;;;;;22.60;46.08;100897.09;5056407;28;45544;-75
2022/05/09 06:22:44;;;;;;;;;3.67;3.67;;;;;24.53;41.67;100902.59;5055688;28;45548;-77
2022/05/09 06:25:13;;;;;;;;;5.00;4.00;;;;;26.03;37.06;100903.34;5056125;28;45486;-75
2022/05/09 06:27:39;;;;;;;;;4.33;3.33;;;;;27.32;35.81;100893.16;5056435;28;45422;-75
2022/05/09 06:30:07;;;;;;;;;5.00;5.00;;;;;28.50;33.05;100891.56;5058787;28;45383;-76
2022/05/09 06:32:34;;;;;;;;;4.00;3.67;;;;;29.41;31.22;100885.19;5060640;28;46104;-77
2022/05/09 06:35:05;;;;;;;;;5.00;4.33;;;;;30.36;29.99;100901.59;5060518;28;45448;-76
2022/05/09 06:37:33;;;;;;;;;4.00;4.00;;;;;31.28;27.79;100890.88;5064425;28;45685;-77
2022/05/09 06:39:59;;;;;;;;;3.67;3.67;;;;;31.95;27.69;100902.69;5038265;27;45748;-77
2022/05/09 06:42:25;;;;;;;;;4.00;4.00;;;;;32.59;26.67;100890.22;5064808;28;47741;-78
2022/05/09 06:44:52;;;;;;;;;4.67;4.67;;;;;33.29;25.17;100897.94;5057637;28;45489;-79
2022/05/09 06:47:18;;;;;;;;;9.67;9.00;;;;;33.96;25.19;100908.31;5056347;28;45518;-77
2022/05/09 06:49:43;;;;;;;;;5.00;5.00;;;;;34.51;23.40;100912.97;5057424;28;45381;-80
2022/05/09 06:52:13;;;;;;;;;6.00;4.67;;;;;34.99;23.04;100905.31;5057081;28;45300;-82
2022/05/09 06:54:39;;;;;;;;;4.00;3.33;;;;;35.60;22.88;100910.28;5056530;28;45500;-80
2022/05/09 06:57:06;;;;;;;;;4.00;3.67;;;;;36.12;23.29;100909.34;5056273;28;45469;-79
2022/05/09 06:59:32;;;;;;;;;3.00;3.00;;;;;36.57;22.40;100874.34;5056766;28;45397;-79
2022/05/09 07:01:59;;;;;;;;;3.67;3.00;;;;;37.42;21.25;100911.56;5055661;28;46620;-77
2022/05/09 07:04:24;;;;;;;;;3.00;3.00;;;;;37.86;19.63;100884.53;5055875;28;45507;-80
2022/05/09 07:06:50;;;;;;;;;3.00;3.00;;;;;38.50;20.32;100914.84;5053388;28;45410;-78
2022/05/09 07:09:16;;;;;;;;;4.00;3.33;;;;;38.88;19.55;100894.44;5055503;28;45318;-78
2022/05/09 07:11:42;;;;;;;;;3.00;3.00;;;;;39.28;19.00;100895.66;5055059;28;45469;-79
2022/05/09 07:14:09;;;;;;;;;5.00;4.00;;;;;39.60;19.13;100895.63;5054662;28;45435;-79
2022/05/09 07:16:36;;;;;;;;;4.00;3.67;;;;;40.04;18.47;100900.94;5054346;28;45362;-80
2022/05/09 07:19:04;;;;;;;;;3.67;3.67;;;;;40.42;17.95;100897.50;5055514;28;45415;-77
2022/05/09 07:21:31;;;;;;;;;4.00;4.00;;;;;40.85;17.27;100920.97;5055318;28;45479;-76
2022/05/09 07:23:58;;;;;;;;;4.67;4.67;;;;;41.18;17.51;100912.53;5055237;28;45602;-83
2022/05/09 07:26:23;;;;;;;;;4.00;3.67;;;;;41.46;17.25;100889.69;5052418;28;45384;-80
2022/05/09 07:28:49;;;;;;;;;3.67;3.67;;;;;41.94;16.51;100923.53;5054846;28;45430;-80
2022/05/09 07:31:14;;;;;;;;;3.33;3.33;;;;;42.27;17.05;100913.91;5050254;28;45457;-80
2022/05/09 07:33:40;;;;;;;;;3.33;3.00;;;;;42.59;16.75;100922.72;5054358;28;45680;-79
2022/05/09 07:36:06;;;;;;;;;3.00;3.00;;;;;42.55;16.24;100893.84;5061434;28;45515;-77
2022/05/09 07:38:31;;;;;;;;;4.33;4.33;;;;;42.79;15.46;100896.84;5054891;28;45452;-79
2022/05/09 07:40:57;;;;;;;;;2.67;2.67;;;;;43.12;15.69;100910.94;5055336;28;46654;-80
2022/05/09 07:43:28;;;;;;;;;3.00;2.67;;;;;43.40;15.27;100916.38;5056883;28;45491;-89
2022/05/09 07:45:55;;;;;;;;;3.33;3.33;;;;;43.52;15.04;100909.59;5053882;28;45394;-84
2022/05/09 07:48:26;;;;;;;;;3.33;3.00;;;;;43.53;14.45;100889.28;5056091;28;45178;-80
2022/05/09 07:50:54;;;;;;;;;4.33;3.67;;;;;43.87;14.37;100902.25;5036785;28;45695;-79
2022/05/09 07:53:26;;;;;;;;;3.67;2.33;;;;;44.09;14.96;100906.38;5056049;28;45552;-83
2022/05/09 07:55:52;;;;;;;;;3.33;3.00;;;;;44.22;14.13;100872.88;5056953;28;45426;-79
2022/05/09 07:58:19;;;;;;;;;3.33;3.33;;;;;44.65;14.00;100882.00;5056746;28;45315;-85
2022/05/09 08:00:46;;;;;;;;;3.00;3.00;;;;;45.11;13.82;100896.22;5055469;28;45430;-77
2022/05/09 08:03:21;;;;;;;;;2.33;2.33;;;;;45.42;13.34;100901.03;5056533;28;45422;-79
2022/05/09 08:05:47;;;;;;;;;3.67;3.67;;;;;45.70;13.38;100896.03;5059757;28;45544;-77
2022/05/09 08:08:13;;;;;;;;;3.00;3.00;;;;;45.90;12.98;100890.13;5056034;28;45820;-86
2022/05/09 08:10:40;;;;;;;;;4.00;3.33;;;;;46.23;13.42;100893.66;5054893;28;46175;-82
2022/05/09 08:13:07;;;;;;;;;4.33;4.00;;;;;46.19;13.23;100867.44;5060597;28;45430;-82
2022/05/09 08:15:34;;;;;;;;;3.67;3.67;;;;;46.36;13.50;100887.53;5057262;28;45700;-84
2022/05/09 08:18:01;;;;;;;;;3.33;3.33;;;;;46.47;13.16;100881.63;5054464;28;45680;-80
2022/05/09 08:20:30;;;;;;;;;2.33;2.00;;;;;46.36;12.94;100846.97;5057471;28;47769;-83
2022/05/09 08:23:11;;;;;;;;;4.00;3.00;;;;;46.88;12.40;100875.00;5061862;28;45469;-80
2022/05/09 08:25:40;;;;;;;;;4.00;3.33;;;;;47.12;12.70;100866.53;5060795;28;45318;-80
2022/05/09 08:28:07;;;;;;;;;3.00;3.00;;;;;47.17;12.90;100861.28;5059271;28;45596;-81
2022/05/09 08:30:34;;;;;;;;;2.67;2.67;;;;;47.54;12.28;100878.94;5057627;28;47654;-81
2022/05/09 08:33:06;;;;;;;;;4.00;4.00;;;;;47.75;12.29;100877.34;5054758;28;45687;-80
2022/05/09 08:35:31;;;;;;;;;4.33;3.67;;;;;47.26;12.61;100795.72;5073067;27;45463;-81
2022/05/09 08:37:57;;;;;;;;;3.67;3.67;;;;;47.87;12.07;100847.28;5058703;28;45541;-81
2022/05/09 08:40:53;;;;;;;;;4.00;4.00;;;;;47.88;11.68;100829.63;5058091;28;46027;-81
2022/05/09 08:43:50;;;;;;;;;2.67;2.67;;;;;48.14;11.49;100882.63;5059183;28;45356;-81
2022/05/09 08:46:58;;;;;;;;;6.33;5.00;;;;;48.22;11.79;100876.09;5060062;28;45330;-81
2022/05/09 08:49:42;;;;;;;;;4.67;4.67;;;;;48.38;12.68;100877.81;5057728;28;45259;-81
2022/05/09 08:52:25;;;;;;;;;5.67;5.33;;;;;48.48;12.06;100880.28;5058907;28;45363;-81
2022/05/09 08:54:55;;;;;;;;;6.00;5.00;;;;;48.47;12.04;100886.88;5059893;28;45616;-81
2022/05/09 08:57:24;;;;;;;;;4.00;4.00;;;;;48.52;11.78;100887.16;5059897;28;45425;-81
2022/05/09 09:00:10;;;;;;;;;4.67;4.67;;;;;48.58;12.16;100881.69;5060956;28;45284;-80
2022/05/09 09:02:54;;;;;;;;;4.33;3.67;;;;;48.58;11.28;100864.19;5058895;28;45437;-79
2022/05/09 09:05:23;;;;;;;;;4.33;4.33;;;;;48.49;11.69;100869.00;5059251;28;45454;-76
2022/05/09 09:08:14;;;;;;;;;4.00;4.00;;;;;48.47;11.29;100875.78;5058538;28;45473;-78
2022/05/09 09:11:00;;;;;;;;;4.00;3.00;;;;;48.47;10.95;100867.47;5059109;28;45404;-78
2022/05/09 09:13:29;;;;;;;;;2.67;2.67;;;;;48.42;11.56;100872.75;5058454;28;45522;-78
2022/05/09 09:16:18;;;;;;;;;2.67;2.67;;;;;48.48;11.41;100864.50;5058860;28;45538;-79
2022/05/09 09:18:55;;;;;;;;;2.67;2.67;;;;;48.44;11.96;100863.19;5058430;28;45433;-78
2022/05/09 09:21:39;;;;;;;;;3.00;3.00;;;;;48.43;11.86;100857.84;5058386;28;45587;-78
2022/05/09 09:24:33;;;;;;;;;3.00;3.00;;;;;47.97;12.10;100859.81;5058265;28;46161;-78
2022/05/09 09:27:21;;;;;;;;;3.00;2.67;;;;;48.20;11.93;100862.44;5056553;28;45580;-76
2022/05/09 09:29:55;;;;;;;;;3.67;3.67;;;;;48.27;11.52;100857.00;5057279;28;45551;-75
2022/05/09 09:32:22;;;;;;;;;4.33;4.33;;;;;48.18;12.12;100836.00;5058105;28;45492;-76
2022/05/09 09:35:00;;;;;;;;;4.00;4.00;;;;;48.19;11.78;100846.00;5057691;28;45471;-78
2022/05/09 09:37:35;;;;;;;;;4.67;4.00;;;;;48.20;12.50;100839.44;5058005;28;45382;-79
2022/05/09 09:40:01;;;;;;;;;5.67;5.67;;;;;48.05;11.50;100841.38;5056653;28;45467;-76
2022/05/09 09:42:27;;;;;;;;;5.67;5.67;;;;;47.89;12.52;100834.94;5073666;27;45508;-78
2022/05/09 09:44:54;;;;;;;;;5.00;5.00;;;;;47.99;11.60;100838.34;5057399;28;45380;-79
2022/05/09 09:47:20;;;;;;;;;7.33;7.00;;;;;47.98;12.18;100836.59;5057608;28;45560;-78
2022/05/09 09:49:49;;;;;;;;;7.67;6.67;;;;;47.72;12.01;100833.44;5057487;28;45665;-76
2022/05/09 09:53:07;;;;;;;;;8.00;8.00;;;;;47.75;11.83;100822.81;5057552;28;45501;-75
2022/05/09 09:55:35;;;;;;;;;10.00;9.00;;;;;48.07;12.76;100833.72;5056625;28;45426;-79
2022/05/09 09:58:22;;;;;;;;;9.00;9.00;;;;;48.04;11.89;100842.44;5057263;28;45352;-79
2022/05/09 10:01:03;;;;;;;;;11.33;11.33;;;;;47.50;12.46;100843.53;5057394;28;45444;-81
2022/05/09 10:03:31;;;;;;;;;9.00;8.33;;;;;47.39;12.49;100837.38;5056639;28;45479;-77
2022/05/09 10:05:57;;;;;;;;;8.33;8.00;;;;;47.13;12.69;100837.78;5057188;28;46152;-80
2022/05/09 10:08:32;;;;;;;;;9.67;9.00;;;;;46.94;13.00;100824.47;5057328;28;45479;-79
2022/05/09 10:11:09;;;;;;;;;9.00;9.00;;;;;46.72;13.00;100818.78;5056670;28;45421;-80
2022/05/09 10:13:53;;;;;;;;;6.00;6.00;;;;;46.46;13.20;100840.38;5056939;28;45578;-78
2022/05/09 10:16:24;;;;;;;;;6.33;6.00;;;;;46.33;13.38;100819.69;5069302;28;45645;-79
2022/05/09 10:18:50;;;;;;;;;5.33;5.33;;;;;46.15;13.43;100810.84;5056285;28;45488;-79
2022/05/09 10:27:25;;;;;;;;;4.33;4.33;;;;;45.62;14.16;100827.88;5058620;28;45901;-75
2022/05/09 10:30:17;;;;;;;;;4.00;4.00;;;;;45.05;14.74;100823.31;5056233;28;45520;-79
2022/05/09 10:33:01;;;;;;;;;9.67;9.00;;;;;44.94;14.46;100809.00;5040207;28;45559;-75
2022/05/09 10:35:40;;;;;;;;;6.00;6.00;;;;;44.52;14.77;100757.66;5057005;28;45472;-80
2022/05/09 10:38:21;;;;;;;;;5.00;5.00;;;;;44.46;15.34;100804.09;5057175;28;46201;-77
2022/05/09 10:40:59;;;;;;;;;5.00;5.00;;;;;44.06;16.02;100797.41;5056918;28;45493;-76
2022/05/09 10:43:34;;;;;;;;;1.00;1.00;;;;;42.90;16.76;100783.97;5055152;28;45719;-78
2022/05/09 10:46:08;;;;;;;;;5.33;5.00;;;;;42.28;17.51;100742.69;5056447;28;45277;-78
2022/05/09 10:48:45;;;;;;;;;6.00;6.00;;;;;41.78;18.14;100789.72;5057769;28;45947;-77
2022/05/09 10:51:25;;;;;;;;;6.33;6.00;;;;;41.47;18.29;100783.63;5055558;28;45524;-80
2022/05/09 10:54:18;;;;;;;;;5.67;5.00;;;;;40.86;18.19;100791.22;5053203;28;45554;-75
2022/05/09 10:57:10;;;;;;;;;7.00;7.00;;;;;40.24;18.52;100756.84;5053750;28;45504;-76
2022/05/09 10:59:42;;;;;;;;;5.00;5.00;;;;;40.20;18.99;100777.28;5037449;28;46367;-76
2022/05/09 11:02:26;;;;;;;;;3.00;3.00;;;;;40.07;19.70;100766.56;5055294;28;45514;-79
2022/05/09 11:04:52;;;;;;;;;3.67;3.67;;;;;40.01;19.99;100759.78;5055022;28;45419;-76
2022/05/09 11:07:26;;;;;;;;;4.00;4.00;;;;;39.91;19.56;100761.63;5055779;28;45399;-76
2022/05/09 11:10:17;;;;;;;;;4.00;4.00;;;;;39.40;20.13;100757.94;5055797;28;46082;-76
2022/05/09 11:13:04;;;;;;;;;5.00;4.00;;;;;37.07;21.93;100769.88;5055413;28;45443;-75
2022/05/09 11:15:48;;;;;;;;;5.00;5.00;;;;;34.32;25.54;100764.16;5056648;28;45390;-75
2022/05/09 11:18:32;;;;;;;;;5.33;5.33;;;;;33.18;27.59;100754.19;5054831;28;45485;-76
2022/05/09 11:21:31;;;;;;;;;5.67;5.67;;;;;32.56;28.43;100760.56;5055784;28;46114;-76
2022/05/09 11:24:05;;;;;;;;;6.33;5.33;;;;;31.96;28.71;100757.66;5055512;28;45559;-76
2022/05/09 11:26:55;;;;;;;;;6.67;5.67;;;;;31.56;29.09;100757.19;5054207;28;45654;-76
2022/05/09 11:29:38;;;;;;;;;5.00;5.00;;;;;31.13;30.71;100753.06;5056173;28;45355;-76
2022/05/09 11:32:06;;;;;;;;;5.33;5.33;;;;;30.86;30.19;100743.72;5055604;28;45358;-75
2022/05/09 11:34:38;;;;;;;;;5.67;5.67;;;;;30.28;31.75;100747.47;5055941;28;45663;-75
2022/05/09 11:37:09;;;;;;;;;5.33;4.67;;;;;30.21;31.31;100749.59;5056236;28;45181;-75
2022/05/09 11:39:55;;;;;;;;;6.67;6.00;;;;;29.77;32.64;100740.97;5056320;28;45431;-75
2022/05/09 11:45:41;;;;;;;;;7.00;6.33;;;;;29.59;32.71;100737.28;5056058;28;45852;-75
2022/05/09 11:48:42;;;;;;;;;6.00;6.00;;;;;29.43;32.93;100739.81;5055117;28;45478;-75
2022/05/09 11:51:26;;;;;;;;;7.00;6.00;;;;;29.43;32.89;100732.59;5049236;28;45598;-75
2022/05/09 11:53:59;;;;;;;;;5.33;5.33;;;;;29.36;33.33;100739.19;5056617;28;45425;-75
2022/05/09 11:56:28;;;;;;;;;6.00;6.00;;;;;29.35;32.78;100738.31;5057850;28;45347;-74